Bellemont, Arizona
Current Conditions -  °F | °C
As of 8:57 PM on Wednesday 22 Oct 2014 (Local Time) from KFLG Reporting Station
Clear Clear  
Wind Chill: 42°   Ceiling: Unl
Heat Index: 42°   Visibility: 10mi
Dew Point: 32°   Wind: 0mph
Humidity: 67%   Direction: NA
Pressure: 30.3"   Gusts: NA
Location:  35.24°N, 111.83°W
Report Text: KFLG 230357Z AUTO 00000KT 10SM CLR 06/00 A3030 RMK AO2 SLP202 T00560000 TSNO
Loading
Personal Weather Stations






























Interactive Weather Map
Tropical Storm Tracking
New forecast layout! Learn more

10-Day Weather Forecast

Advertisements
Track Severe Weather on mobile